sensor_id;sensor_type;location;lat;lon;timestamp;pressure;altitude;pressure_sealevel;temperature;humidity
28701;BME280;15877;52.344;16.790;2022-11-15T00:01:43;100815.38;;;9.03;72.70
28701;BME280;15877;52.344;16.790;2022-11-15T00:04:34;100816.55;;;9.00;72.65
28701;BME280;15877;52.344;16.790;2022-11-15T00:07:24;100813.73;;;8.94;72.67
28701;BME280;15877;52.344;16.790;2022-11-15T00:10:35;100817.19;;;8.95;72.72
28701;BME280;15877;52.344;16.790;2022-11-15T00:13:27;100810.05;;;8.95;73.12
28701;BME280;15877;52.344;16.790;2022-11-15T00:16:19;100807.88;;;8.94;72.95
28701;BME280;15877;52.344;16.790;2022-11-15T00:19:10;100797.86;;;8.93;72.94
28701;BME280;15877;52.344;16.790;2022-11-15T00:22:01;100795.02;;;8.94;72.88
28701;BME280;15877;52.344;16.790;2022-11-15T00:24:52;100790.52;;;8.93;73.01
28701;BME280;15877;52.344;16.790;2022-11-15T00:27:42;100789.04;;;8.94;73.15
28701;BME280;15877;52.344;16.790;2022-11-15T00:30:34;100787.51;;;8.96;72.92
28701;BME280;15877;52.344;16.790;2022-11-15T00:33:25;100783.33;;;8.96;72.96
28701;BME280;15877;52.344;16.790;2022-11-15T00:36:15;100781.41;;;8.96;72.79
28701;BME280;15877;52.344;16.790;2022-11-15T00:39:06;100777.65;;;8.95;72.94
28701;BME280;15877;52.344;16.790;2022-11-15T00:41:57;100782.31;;;8.94;73.02
28701;BME280;15877;52.344;16.790;2022-11-15T00:44:48;100786.80;;;8.96;73.10
28701;BME280;15877;52.344;16.790;2022-11-15T00:47:39;100790.87;;;8.97;73.17
28701;BME280;15877;52.344;16.790;2022-11-15T00:50:30;100789.38;;;8.93;72.92
28701;BME280;15877;52.344;16.790;2022-11-15T00:53:20;100789.38;;;8.95;72.64
28701;BME280;15877;52.344;16.790;2022-11-15T00:56:11;100790.25;;;8.95;72.58
28701;BME280;15877;52.344;16.790;2022-11-15T00:59:02;100784.09;;;8.95;72.68
28701;BME280;15877;52.344;16.790;2022-11-15T01:01:53;100777.39;;;8.94;72.46
28701;BME280;15877;52.344;16.790;2022-11-15T01:04:43;100771.58;;;8.93;72.57
28701;BME280;15877;52.344;16.790;2022-11-15T01:07:34;100773.63;;;8.93;72.28
28701;BME280;15877;52.344;16.790;2022-11-15T01:10:25;100766.14;;;8.87;72.33
28701;BME280;15877;52.344;16.790;2022-11-15T01:13:16;100768.17;;;8.86;72.39
28701;BME280;15877;52.344;16.790;2022-11-15T01:16:12;100766.38;;;8.86;72.27
28701;BME280;15877;52.344;16.790;2022-11-15T01:19:03;100761.23;;;8.86;72.25
28701;BME280;15877;52.344;16.790;2022-11-15T01:21:54;100757.95;;;8.86;72.30
28701;BME280;15877;52.344;16.790;2022-11-15T01:24:44;100755.91;;;8.84;72.25
28701;BME280;15877;52.344;16.790;2022-11-15T01:27:35;100753.85;;;8.82;72.26
28701;BME280;15877;52.344;16.790;2022-11-15T01:30:26;100749.95;;;8.78;72.31
28701;BME280;15877;52.344;16.790;2022-11-15T01:33:16;100754.74;;;8.80;72.55
28701;BME280;15877;52.344;16.790;2022-11-15T01:36:10;100748.59;;;8.80;72.55
28701;BME280;15877;52.344;16.790;2022-11-15T01:39:02;100741.92;;;8.80;72.59
28701;BME280;15877;52.344;16.790;2022-11-15T01:41:53;100736.58;;;8.79;72.43
28701;BME280;15877;52.344;16.790;2022-11-15T01:44:46;100730.80;;;8.76;72.18
28701;BME280;15877;52.344;16.790;2022-11-15T01:47:40;100726.21;;;8.77;72.09
28701;BME280;15877;52.344;16.790;2022-11-15T01:50:34;100725.20;;;8.72;72.56
28701;BME280;15877;52.344;16.790;2022-11-15T01:53:26;100722.02;;;8.74;72.53
28701;BME280;15877;52.344;16.790;2022-11-15T01:56:20;100719.81;;;8.75;72.37
28701;BME280;15877;52.344;16.790;2022-11-15T01:59:13;100723.27;;;8.76;72.20
28701;BME280;15877;52.344;16.790;2022-11-15T02:02:04;100718.75;;;8.76;72.24
28701;BME280;15877;52.344;16.790;2022-11-15T02:04:55;100714.02;;;8.74;72.33
28701;BME280;15877;52.344;16.790;2022-11-15T02:07:45;100704.30;;;8.70;72.17
28701;BME280;15877;52.344;16.790;2022-11-15T02:10:37;100709.30;;;8.72;71.99
28701;BME280;15877;52.344;16.790;2022-11-15T02:13:28;100717.80;;;8.71;72.02
28701;BME280;15877;52.344;16.790;2022-11-15T02:16:27;100711.43;;;8.70;72.01
28701;BME280;15877;52.344;16.790;2022-11-15T02:19:33;100707.18;;;8.71;72.03
28701;BME280;15877;52.344;16.790;2022-11-15T02:22:42;100703.27;;;8.69;71.89
28701;BME280;15877;52.344;16.790;2022-11-15T02:25:44;100702.44;;;8.68;71.72
28701;BME280;15877;52.344;16.790;2022-11-15T02:28:51;100701.65;;;8.66;71.74
28701;BME280;15877;52.344;16.790;2022-11-15T02:31:53;100706.54;;;8.63;71.74
28701;BME280;15877;52.344;16.790;2022-11-15T02:34:53;100703.41;;;8.62;71.74
28701;BME280;15877;52.344;16.790;2022-11-15T02:37:51;100699.00;;;8.58;71.54
28701;BME280;15877;52.344;16.790;2022-11-15T02:40:45;100700.45;;;8.54;71.38
28701;BME280;15877;52.344;16.790;2022-11-15T02:43:43;100697.23;;;8.53;71.46
28701;BME280;15877;52.344;16.790;2022-11-15T02:46:51;100694.09;;;8.53;71.43
28701;BME280;15877;52.344;16.790;2022-11-15T02:50:05;100692.59;;;8.49;71.26
28701;BME280;15877;52.344;16.790;2022-11-15T02:52:57;100690.38;;;8.49;71.26
28701;BME280;15877;52.344;16.790;2022-11-15T02:55:50;100693.10;;;8.50;71.45
28701;BME280;15877;52.344;16.790;2022-11-15T02:58:57;100687.46;;;8.49;71.15
28701;BME280;15877;52.344;16.790;2022-11-15T03:01:59;100682.55;;;8.47;71.35
28701;BME280;15877;52.344;16.790;2022-11-15T03:04:57;100684.00;;;8.45;71.46
28701;BME280;15877;52.344;16.790;2022-11-15T03:07:53;100678.94;;;8.45;71.48
28701;BME280;15877;52.344;16.790;2022-11-15T03:10:55;100673.79;;;8.45;71.44
28701;BME280;15877;52.344;16.790;2022-11-15T03:13:55;100668.49;;;8.43;71.50
28701;BME280;15877;52.344;16.790;2022-11-15T03:16:54;100665.31;;;8.42;71.53
28701;BME280;15877;52.344;16.790;2022-11-15T03:19:49;100667.27;;;8.42;71.49
28701;BME280;15877;52.344;16.790;2022-11-15T03:22:44;100659.05;;;8.42;71.24
28701;BME280;15877;52.344;16.790;2022-11-15T03:25:38;100648.72;;;8.41;71.63
28701;BME280;15877;52.344;16.790;2022-11-15T03:28:35;100648.39;;;8.40;71.56
28701;BME280;15877;52.344;16.790;2022-11-15T03:31:30;100650.98;;;8.37;71.57
28701;BME280;15877;52.344;16.790;2022-11-15T03:34:43;100639.48;;;8.32;71.59
28701;BME280;15877;52.344;16.790;2022-11-15T03:37:39;100634.86;;;8.33;71.51
28701;BME280;15877;52.344;16.790;2022-11-15T03:40:35;100637.73;;;8.34;72.01
28701;BME280;15877;52.344;16.790;2022-11-15T03:43:33;100634.41;;;8.34;71.93
28701;BME280;15877;52.344;16.790;2022-11-15T03:46:28;100649.29;;;8.34;72.03
28701;BME280;15877;52.344;16.790;2022-11-15T03:49:27;100643.79;;;8.35;72.02
28701;BME280;15877;52.344;16.790;2022-11-15T03:52:20;100645.98;;;8.36;72.18
28701;BME280;15877;52.344;16.790;2022-11-15T03:55:15;100647.98;;;8.35;72.10
28701;BME280;15877;52.344;16.790;2022-11-15T03:58:06;100647.47;;;8.36;72.30
28701;BME280;15877;52.344;16.790;2022-11-15T04:00:57;100647.55;;;8.36;72.31
28701;BME280;15877;52.344;16.790;2022-11-15T04:03:49;100640.85;;;8.37;72.34
28701;BME280;15877;52.344;16.790;2022-11-15T04:06:39;100648.38;;;8.33;72.29
28701;BME280;15877;52.344;16.790;2022-11-15T04:09:30;100646.33;;;8.33;72.41
28701;BME280;15877;52.344;16.790;2022-11-15T04:12:21;100644.63;;;8.37;72.19
28701;BME280;15877;52.344;16.790;2022-11-15T04:15:22;100643.39;;;8.37;72.25
28701;BME280;15877;52.344;16.790;2022-11-15T04:18:13;100640.52;;;8.39;72.55
28701;BME280;15877;52.344;16.790;2022-11-15T04:21:04;100639.54;;;8.38;72.23
28701;BME280;15877;52.344;16.790;2022-11-15T04:24:13;100641.75;;;8.38;72.50
28701;BME280;15877;52.344;16.790;2022-11-15T04:27:04;100643.08;;;8.33;72.41
28701;BME280;15877;52.344;16.790;2022-11-15T04:29:55;100636.11;;;8.35;72.20
28701;BME280;15877;52.344;16.790;2022-11-15T04:32:47;100633.56;;;8.37;71.87
28701;BME280;15877;52.344;16.790;2022-11-15T04:35:38;100635.66;;;8.33;72.01
28701;BME280;15877;52.344;16.790;2022-11-15T04:38:28;100638.08;;;8.32;71.93
28701;BME280;15877;52.344;16.790;2022-11-15T04:41:19;100634.27;;;8.34;71.92
28701;BME280;15877;52.344;16.790;2022-11-15T04:44:09;100633.78;;;8.32;71.84
28701;BME280;15877;52.344;16.790;2022-11-15T04:46:59;100641.88;;;8.30;71.87
28701;BME280;15877;52.344;16.790;2022-11-15T04:49:50;100641.09;;;8.30;71.83
28701;BME280;15877;52.344;16.790;2022-11-15T04:52:41;100633.06;;;8.29;71.65
28701;BME280;15877;52.344;16.790;2022-11-15T04:55:32;100633.61;;;8.24;71.97
28701;BME280;15877;52.344;16.790;2022-11-15T04:58:23;100630.80;;;8.24;72.06
28701;BME280;15877;52.344;16.790;2022-11-15T05:01:15;100623.55;;;8.22;71.95
28701;BME280;15877;52.344;16.790;2022-11-15T05:04:07;100624.59;;;8.23;72.03
28701;BME280;15877;52.344;16.790;2022-11-15T05:07:09;100614.61;;;8.26;72.06
28701;BME280;15877;52.344;16.790;2022-11-15T05:10:01;100614.65;;;8.25;72.13
28701;BME280;15877;52.344;16.790;2022-11-15T05:12:52;100609.17;;;8.26;72.00
28701;BME280;15877;52.344;16.790;2022-11-15T05:15:42;100609.31;;;8.24;71.86
28701;BME280;15877;52.344;16.790;2022-11-15T05:18:33;100606.31;;;8.20;72.06
28701;BME280;15877;52.344;16.790;2022-11-15T05:21:24;100604.05;;;8.23;72.16
28701;BME280;15877;52.344;16.790;2022-11-15T05:24:15;100602.24;;;8.25;72.07
28701;BME280;15877;52.344;16.790;2022-11-15T05:27:05;100600.73;;;8.27;72.02
28701;BME280;15877;52.344;16.790;2022-11-15T05:29:57;100590.44;;;8.23;72.06
28701;BME280;15877;52.344;16.790;2022-11-15T05:32:48;100593.31;;;8.21;71.62
28701;BME280;15877;52.344;16.790;2022-11-15T05:35:41;100603.72;;;8.23;71.75
28701;BME280;15877;52.344;16.790;2022-11-15T05:38:33;100595.33;;;8.22;71.67
28701;BME280;15877;52.344;16.790;2022-11-15T05:41:29;100607.00;;;8.20;71.51
28701;BME280;15877;52.344;16.790;2022-11-15T05:44:23;100611.20;;;8.20;71.57
28701;BME280;15877;52.344;16.790;2022-11-15T05:47:18;100606.73;;;8.18;71.57
28701;BME280;15877;52.344;16.790;2022-11-15T05:50:14;100601.95;;;8.20;71.29
28701;BME280;15877;52.344;16.790;2022-11-15T05:53:07;100600.27;;;8.17;71.37
28701;BME280;15877;52.344;16.790;2022-11-15T05:56:00;100594.54;;;8.13;71.51
28701;BME280;15877;52.344;16.790;2022-11-15T05:58:51;100597.42;;;8.14;71.30
28701;BME280;15877;52.344;16.790;2022-11-15T06:01:48;100603.95;;;8.13;71.52
28701;BME280;15877;52.344;16.790;2022-11-15T06:04:39;100601.70;;;8.12;71.71
28701;BME280;15877;52.344;16.790;2022-11-15T06:07:31;100606.05;;;8.15;71.40
28701;BME280;15877;52.344;16.790;2022-11-15T06:10:24;100612.12;;;8.14;71.35
28701;BME280;15877;52.344;16.790;2022-11-15T06:13:15;100609.02;;;8.14;71.50
28701;BME280;15877;52.344;16.790;2022-11-15T06:16:07;100610.98;;;8.14;71.26
28701;BME280;15877;52.344;16.790;2022-11-15T06:18:57;100615.24;;;8.13;71.31
28701;BME280;15877;52.344;16.790;2022-11-15T06:21:48;100606.29;;;8.15;71.64
28701;BME280;15877;52.344;16.790;2022-11-15T06:24:41;100612.73;;;8.14;71.46
28701;BME280;15877;52.344;16.790;2022-11-15T06:27:33;100613.01;;;8.10;71.65
28701;BME280;15877;52.344;16.790;2022-11-15T06:30:24;100613.74;;;8.11;71.57
28701;BME280;15877;52.344;16.790;2022-11-15T06:33:15;100603.81;;;8.12;71.42
28701;BME280;15877;52.344;16.790;2022-11-15T06:36:09;100612.09;;;8.13;71.70
28701;BME280;15877;52.344;16.790;2022-11-15T06:39:06;100615.13;;;8.12;71.40
28701;BME280;15877;52.344;16.790;2022-11-15T06:41:58;100616.86;;;8.14;71.44
28701;BME280;15877;52.344;16.790;2022-11-15T06:44:48;100619.15;;;8.14;71.49
28701;BME280;15877;52.344;16.790;2022-11-15T06:47:45;100622.19;;;8.10;71.50
28701;BME280;15877;52.344;16.790;2022-11-15T06:50:36;100624.45;;;8.14;71.66
28701;BME280;15877;52.344;16.790;2022-11-15T06:53:28;100621.25;;;8.13;71.70
28701;BME280;15877;52.344;16.790;2022-11-15T06:56:20;100626.34;;;8.14;71.70
28701;BME280;15877;52.344;16.790;2022-11-15T06:59:11;100626.11;;;8.14;71.78
28701;BME280;15877;52.344;16.790;2022-11-15T07:02:03;100630.75;;;8.16;72.01
28701;BME280;15877;52.344;16.790;2022-11-15T07:04:54;100626.71;;;8.16;72.11
28701;BME280;15877;52.344;16.790;2022-11-15T07:07:45;100626.22;;;8.19;72.19
28701;BME280;15877;52.344;16.790;2022-11-15T07:10:40;100632.92;;;8.19;71.95
28701;BME280;15877;52.344;16.790;2022-11-15T07:13:32;100635.96;;;8.24;71.74
28701;BME280;15877;52.344;16.790;2022-11-15T07:16:24;100637.89;;;8.27;72.06
28701;BME280;15877;52.344;16.790;2022-11-15T07:19:14;100642.00;;;8.27;71.86
28701;BME280;15877;52.344;16.790;2022-11-15T07:22:05;100640.59;;;8.27;72.16
28701;BME280;15877;52.344;16.790;2022-11-15T07:24:55;100638.34;;;8.22;72.23
28701;BME280;15877;52.344;16.790;2022-11-15T07:27:55;100635.80;;;8.26;71.93
28701;BME280;15877;52.344;16.790;2022-11-15T07:30:46;100628.34;;;8.17;71.93
28701;BME280;15877;52.344;16.790;2022-11-15T07:33:37;100625.23;;;8.21;71.96
28701;BME280;15877;52.344;16.790;2022-11-15T07:36:28;100629.31;;;8.13;72.26
28701;BME280;15877;52.344;16.790;2022-11-15T07:39:19;100629.69;;;8.17;72.17
28701;BME280;15877;52.344;16.790;2022-11-15T07:42:10;100627.70;;;8.18;72.22
28701;BME280;15877;52.344;16.790;2022-11-15T07:45:18;100628.54;;;8.22;72.14
28701;BME280;15877;52.344;16.790;2022-11-15T07:48:09;100622.54;;;8.27;72.01
28701;BME280;15877;52.344;16.790;2022-11-15T07:50:59;100619.13;;;8.26;72.35
28701;BME280;15877;52.344;16.790;2022-11-15T07:53:50;100616.36;;;8.26;72.52
28701;BME280;15877;52.344;16.790;2022-11-15T07:56:41;100617.29;;;8.28;72.54
28701;BME280;15877;52.344;16.790;2022-11-15T07:59:31;100620.29;;;8.33;72.26
28701;BME280;15877;52.344;16.790;2022-11-15T08:02:22;100612.98;;;8.36;71.91
28701;BME280;15877;52.344;16.790;2022-11-15T08:05:19;100612.41;;;8.36;71.99
28701;BME280;15877;52.344;16.790;2022-11-15T08:08:10;100615.94;;;8.40;72.46
28701;BME280;15877;52.344;16.790;2022-11-15T08:11:01;100616.98;;;8.42;72.53
28701;BME280;15877;52.344;16.790;2022-11-15T08:13:52;100609.91;;;8.46;72.32
28701;BME280;15877;52.344;16.790;2022-11-15T08:16:43;100597.56;;;8.53;71.95
28701;BME280;15877;52.344;16.790;2022-11-15T08:19:34;100597.88;;;8.51;72.14
28701;BME280;15877;52.344;16.790;2022-11-15T08:22:24;100600.69;;;8.49;72.47
28701;BME280;15877;52.344;16.790;2022-11-15T08:25:15;100601.08;;;8.54;72.23
28701;BME280;15877;52.344;16.790;2022-11-15T08:28:07;100596.92;;;8.55;72.53
28701;BME280;15877;52.344;16.790;2022-11-15T08:31:00;100597.94;;;8.57;73.19
28701;BME280;15877;52.344;16.790;2022-11-15T08:33:50;100595.23;;;8.62;73.37
28701;BME280;15877;52.344;16.790;2022-11-15T08:36:41;100588.14;;;8.67;72.79
28701;BME280;15877;52.344;16.790;2022-11-15T08:39:35;100587.20;;;8.71;72.77
28701;BME280;15877;52.344;16.790;2022-11-15T08:42:25;100586.65;;;8.71;73.24
28701;BME280;15877;52.344;16.790;2022-11-15T08:45:16;100582.38;;;8.76;73.56
28701;BME280;15877;52.344;16.790;2022-11-15T08:48:07;100584.89;;;8.70;73.18
28701;BME280;15877;52.344;16.790;2022-11-15T08:50:58;100580.84;;;8.70;73.24
28701;BME280;15877;52.344;16.790;2022-11-15T08:53:49;100573.73;;;8.72;73.65
28701;BME280;15877;52.344;16.790;2022-11-15T08:56:39;100575.20;;;8.79;73.73
28701;BME280;15877;52.344;16.790;2022-11-15T08:59:30;100575.25;;;8.81;74.23
28701;BME280;15877;52.344;16.790;2022-11-15T09:02:21;100578.69;;;8.84;74.01
28701;BME280;15877;52.344;16.790;2022-11-15T09:05:12;100578.32;;;8.90;73.78
28701;BME280;15877;52.344;16.790;2022-11-15T09:08:05;100575.59;;;8.91;73.80
28701;BME280;15877;52.344;16.790;2022-11-15T09:11:16;100568.33;;;8.95;73.42
28701;BME280;15877;52.344;16.790;2022-11-15T09:14:11;100572.52;;;9.00;73.90
28701;BME280;15877;52.344;16.790;2022-11-15T09:17:02;100567.84;;;9.01;74.23
28701;BME280;15877;52.344;16.790;2022-11-15T09:19:53;100566.52;;;9.06;73.93
28701;BME280;15877;52.344;16.790;2022-11-15T09:22:43;100572.20;;;9.10;74.22
28701;BME280;15877;52.344;16.790;2022-11-15T09:25:34;100573.27;;;9.16;74.06
28701;BME280;15877;52.344;16.790;2022-11-15T09:28:25;100567.59;;;9.20;73.86
28701;BME280;15877;52.344;16.790;2022-11-15T09:31:16;100564.73;;;9.22;73.83
28701;BME280;15877;52.344;16.790;2022-11-15T09:34:10;100570.96;;;9.24;74.20
28701;BME280;15877;52.344;16.790;2022-11-15T09:37:01;100562.68;;;9.31;74.47
28701;BME280;15877;52.344;16.790;2022-11-15T09:39:52;100556.56;;;9.36;74.15
28701;BME280;15877;52.344;16.790;2022-11-15T09:43:03;100552.65;;;9.37;73.89
28701;BME280;15877;52.344;16.790;2022-11-15T09:46:01;100555.81;;;9.37;74.13
28701;BME280;15877;52.344;16.790;2022-11-15T09:48:57;100558.41;;;9.42;74.29
28701;BME280;15877;52.344;16.790;2022-11-15T09:51:35;100557.02;;;9.43;73.94
28701;BME280;15877;52.344;16.790;2022-11-15T09:54:24;100559.02;;;9.47;74.19
28701;BME280;15877;52.344;16.790;2022-11-15T09:57:20;100554.95;;;9.54;74.95
28701;BME280;15877;52.344;16.790;2022-11-15T10:00:10;100553.15;;;9.60;74.57
28701;BME280;15877;52.344;16.790;2022-11-15T10:03:12;100547.79;;;9.62;74.69
28701;BME280;15877;52.344;16.790;2022-11-15T10:05:46;100549.75;;;9.64;74.46
28701;BME280;15877;52.344;16.790;2022-11-15T10:08:40;100549.67;;;9.69;74.47
28701;BME280;15877;52.344;16.790;2022-11-15T10:11:20;100545.30;;;9.75;74.74
28701;BME280;15877;52.344;16.790;2022-11-15T10:14:13;100539.50;;;9.77;74.72
28701;BME280;15877;52.344;16.790;2022-11-15T10:17:09;100543.78;;;9.83;74.60
28701;BME280;15877;52.344;16.790;2022-11-15T10:19:52;100534.27;;;9.86;74.39
28701;BME280;15877;52.344;16.790;2022-11-15T10:22:40;100533.51;;;9.87;74.73
28701;BME280;15877;52.344;16.790;2022-11-15T10:25:23;100531.27;;;9.90;74.65
28701;BME280;15877;52.344;16.790;2022-11-15T10:27:59;100528.71;;;9.95;74.77
28701;BME280;15877;52.344;16.790;2022-11-15T10:30:36;100528.85;;;9.88;75.09
28701;BME280;15877;52.344;16.790;2022-11-15T10:33:29;100530.54;;;9.95;74.82
28701;BME280;15877;52.344;16.790;2022-11-15T10:36:31;100530.13;;;10.01;74.83
28701;BME280;15877;52.344;16.790;2022-11-15T10:39:04;100527.55;;;10.00;75.07
28701;BME280;15877;52.344;16.790;2022-11-15T10:41:41;100527.30;;;10.02;75.20
28701;BME280;15877;52.344;16.790;2022-11-15T10:44:28;100524.92;;;10.08;75.21
28701;BME280;15877;52.344;16.790;2022-11-15T10:47:22;100521.42;;;10.13;75.38
28701;BME280;15877;52.344;16.790;2022-11-15T10:50:06;100520.16;;;10.16;75.35
28701;BME280;15877;52.344;16.790;2022-11-15T10:52:46;100524.90;;;10.16;75.20
28701;BME280;15877;52.344;16.790;2022-11-15T10:55:25;100516.67;;;10.08;74.97
28701;BME280;15877;52.344;16.790;2022-11-15T10:58:21;100510.98;;;10.14;75.68
28701;BME280;15877;52.344;16.790;2022-11-15T11:00:55;100512.33;;;10.17;75.52
28701;BME280;15877;52.344;16.790;2022-11-15T11:03:35;100502.23;;;10.19;75.81
28701;BME280;15877;52.344;16.790;2022-11-15T11:06:13;100501.95;;;10.24;75.93
28701;BME280;15877;52.344;16.790;2022-11-15T11:08:57;100500.48;;;10.26;75.72
28701;BME280;15877;52.344;16.790;2022-11-15T11:11:46;100499.06;;;10.26;76.01
28701;BME280;15877;52.344;16.790;2022-11-15T11:14:22;100496.48;;;10.31;76.03
28701;BME280;15877;52.344;16.790;2022-11-15T11:17:02;100493.44;;;10.33;76.16
28701;BME280;15877;52.344;16.790;2022-11-15T11:19:43;100484.48;;;10.37;76.17
28701;BME280;15877;52.344;16.790;2022-11-15T11:22:24;100486.95;;;10.37;76.29
28701;BME280;15877;52.344;16.790;2022-11-15T11:25:08;100487.14;;;10.42;76.48
28701;BME280;15877;52.344;16.790;2022-11-15T11:27:55;100485.35;;;10.44;76.92
28701;BME280;15877;52.344;16.790;2022-11-15T11:30:40;100484.21;;;10.45;76.64
28701;BME280;15877;52.344;16.790;2022-11-15T11:33:17;100477.60;;;10.48;76.44
28701;BME280;15877;52.344;16.790;2022-11-15T11:36:02;100478.30;;;10.51;76.18
28701;BME280;15877;52.344;16.790;2022-11-15T11:38:48;100473.86;;;10.54;75.89
28701;BME280;15877;52.344;16.790;2022-11-15T11:41:42;100468.33;;;10.56;75.69
28701;BME280;15877;52.344;16.790;2022-11-15T11:44:38;100458.67;;;10.60;75.74
28701;BME280;15877;52.344;16.790;2022-11-15T11:47:21;100460.73;;;10.64;75.29
28701;BME280;15877;52.344;16.790;2022-11-15T11:49:59;100460.19;;;10.64;74.70
28701;BME280;15877;52.344;16.790;2022-11-15T11:52:35;100456.75;;;10.56;75.22
28701;BME280;15877;52.344;16.790;2022-11-15T11:55:16;100458.58;;;10.45;75.28
28701;BME280;15877;52.344;16.790;2022-11-15T11:57:53;100453.07;;;10.47;75.40
28701;BME280;15877;52.344;16.790;2022-11-15T12:00:33;100446.88;;;10.47;75.95
28701;BME280;15877;52.344;16.790;2022-11-15T12:03:11;100449.62;;;10.46;76.61
28701;BME280;15877;52.344;16.790;2022-11-15T12:05:48;100444.59;;;10.48;76.51
28701;BME280;15877;52.344;16.790;2022-11-15T12:08:31;100440.16;;;10.49;76.56
28701;BME280;15877;52.344;16.790;2022-11-15T12:11:10;100436.91;;;10.49;76.60
28701;BME280;15877;52.344;16.790;2022-11-15T12:13:45;100436.84;;;10.53;76.44
28701;BME280;15877;52.344;16.790;2022-11-15T12:16:23;100437.29;;;10.55;75.98
28701;BME280;15877;52.344;16.790;2022-11-15T12:19:02;100429.34;;;10.54;76.23
28701;BME280;15877;52.344;16.790;2022-11-15T12:21:41;100427.93;;;10.59;76.32
28701;BME280;15877;52.344;16.790;2022-11-15T12:24:19;100419.14;;;10.61;76.55
28701;BME280;15877;52.344;16.790;2022-11-15T12:26:57;100411.40;;;10.62;77.07
28701;BME280;15877;52.344;16.790;2022-11-15T12:29:35;100413.82;;;10.63;77.07
28701;BME280;15877;52.344;16.790;2022-11-15T12:32:20;100411.98;;;10.66;76.77
28701;BME280;15877;52.344;16.790;2022-11-15T12:34:57;100418.43;;;10.67;76.60
28701;BME280;15877;52.344;16.790;2022-11-15T12:37:51;100413.02;;;10.68;76.66
28701;BME280;15877;52.344;16.790;2022-11-15T12:40:31;100409.97;;;10.70;76.32
28701;BME280;15877;52.344;16.790;2022-11-15T12:46:06;100408.94;;;10.69;76.17
28701;BME280;15877;52.344;16.790;2022-11-15T12:48:59;100404.76;;;10.66;76.31
28701;BME280;15877;52.344;16.790;2022-11-15T12:52:07;100413.59;;;10.68;76.21
28701;BME280;15877;52.344;16.790;2022-11-15T12:55:02;100410.26;;;10.68;76.11
28701;BME280;15877;52.344;16.790;2022-11-15T12:57:55;100403.93;;;10.68;76.15
28701;BME280;15877;52.344;16.790;2022-11-15T13:00:47;100403.16;;;10.66;76.12
28701;BME280;15877;52.344;16.790;2022-11-15T13:03:27;100400.76;;;10.65;76.07
28701;BME280;15877;52.344;16.790;2022-11-15T13:06:06;100399.52;;;10.63;76.50
28701;BME280;15877;52.344;16.790;2022-11-15T13:08:45;100397.33;;;10.61;76.74
28701;BME280;15877;52.344;16.790;2022-11-15T13:11:49;100397.28;;;10.62;76.68
28701;BME280;15877;52.344;16.790;2022-11-15T13:14:43;100396.96;;;10.62;76.60
28701;BME280;15877;52.344;16.790;2022-11-15T13:17:35;100385.74;;;10.65;75.84
28701;BME280;15877;52.344;16.790;2022-11-15T13:20:27;100381.14;;;10.57;75.96
28701;BME280;15877;52.344;16.790;2022-11-15T13:23:09;100381.25;;;10.55;76.02
28701;BME280;15877;52.344;16.790;2022-11-15T13:26:05;100380.02;;;10.53;75.99
28701;BME280;15877;52.344;16.790;2022-11-15T13:28:44;100382.75;;;10.50;76.31
28701;BME280;15877;52.344;16.790;2022-11-15T13:31:30;100380.46;;;10.52;76.57
28701;BME280;15877;52.344;16.790;2022-11-15T13:34:19;100375.52;;;10.47;76.79
28701;BME280;15877;52.344;16.790;2022-11-15T13:37:29;100371.40;;;10.47;76.99
28701;BME280;15877;52.344;16.790;2022-11-15T13:40:25;100368.89;;;10.44;76.71
28701;BME280;15877;52.344;16.790;2022-11-15T13:43:17;100366.54;;;10.43;76.17
28701;BME280;15877;52.344;16.790;2022-11-15T13:46:05;100375.30;;;10.40;76.24
28701;BME280;15877;52.344;16.790;2022-11-15T13:48:38;100373.21;;;10.39;76.78
28701;BME280;15877;52.344;16.790;2022-11-15T13:51:16;100371.88;;;10.40;76.71
28701;BME280;15877;52.344;16.790;2022-11-15T13:53:52;100371.33;;;10.40;76.55
28701;BME280;15877;52.344;16.790;2022-11-15T13:56:27;100365.70;;;10.41;76.53
28701;BME280;15877;52.344;16.790;2022-11-15T13:59:07;100363.48;;;10.41;76.59
28701;BME280;15877;52.344;16.790;2022-11-15T14:01:43;100357.10;;;10.39;76.91
28701;BME280;15877;52.344;16.790;2022-11-15T14:04:20;100358.28;;;10.38;76.91
28701;BME280;15877;52.344;16.790;2022-11-15T14:06:56;100359.13;;;10.37;76.86
28701;BME280;15877;52.344;16.790;2022-11-15T14:09:34;100358.80;;;10.37;76.75
28701;BME280;15877;52.344;16.790;2022-11-15T14:12:25;100358.78;;;10.32;76.72
28701;BME280;15877;52.344;16.790;2022-11-15T14:14:58;100361.56;;;10.32;76.71
28701;BME280;15877;52.344;16.790;2022-11-15T14:17:38;100354.09;;;10.32;76.49
28701;BME280;15877;52.344;16.790;2022-11-15T14:20:29;100361.27;;;10.27;76.70
28701;BME280;15877;52.344;16.790;2022-11-15T14:23:05;100362.70;;;10.27;76.64
28701;BME280;15877;52.344;16.790;2022-11-15T14:25:55;100358.98;;;10.27;76.70
28701;BME280;15877;52.344;16.790;2022-11-15T14:28:33;100348.82;;;10.16;76.84
28701;BME280;15877;52.344;16.790;2022-11-15T14:31:12;100351.74;;;10.22;76.91
28701;BME280;15877;52.344;16.790;2022-11-15T14:33:45;100353.95;;;10.22;76.81
28701;BME280;15877;52.344;16.790;2022-11-15T14:36:19;100351.08;;;10.21;76.81
28701;BME280;15877;52.344;16.790;2022-11-15T14:38:51;100352.88;;;10.19;77.18
28701;BME280;15877;52.344;16.790;2022-11-15T14:41:25;100353.65;;;10.19;77.13
28701;BME280;15877;52.344;16.790;2022-11-15T14:43:58;100355.18;;;10.20;77.08
28701;BME280;15877;52.344;16.790;2022-11-15T14:46:30;100350.73;;;10.17;77.15
28701;BME280;15877;52.344;16.790;2022-11-15T14:49:04;100342.75;;;10.14;77.02